<?xml version="1.0" encoding="UTF-8" standalone="no" ?>
<gpx xmlns="http://www.topografix.com/GPX/1/1" xmlns:xsi="http://www.w3.org/2001/XMLSchema-instance" xsi:schemaLocation="http://www.topografix.com/GPX/1/1 http://www.topografix.com/GPX/1/1/gpx.xsd" version="1.1" creator="VisuGPX - https://www.visugpx.com">
  <metadata>
    <name>G4 Cascacde de Brochaux et lac Vert en aller retour.</name>
  </metadata>
  <wpt lat="46.20849" lon="6.77555">
    <ele>1496</ele>
    <name><![CDATA[Point de passage 1]]></name>
  </wpt>
  <wpt lat="46.20862" lon="6.77554">
    <ele>1495</ele>
    <name><![CDATA[Point de passage 2]]></name>
  </wpt>
  <trk>
    <name><![CDATA[Cascacde de Brochaux et lac Vert en aller retour.]]></name>
    <extensions>
      <line xmlns="http://www.topografix.com/GPX/gpx_style/0/2">
        <color>0000FF</color>
        <width>4</width>
      </line>
    </extensions>
    <trkseg>
      <trkpt lat="46.20849" lon="6.77555">
        <ele>1496</ele>
        <time>2026-09-01T08:33:42.000Z</time>
      </trkpt>
      <trkpt lat="46.20862" lon="6.77554">
        <ele>1495</ele>
        <time>2026-09-01T08:33:57.000Z</time>
      </trkpt>
      <trkpt lat="46.20846" lon="6.77596">
        <ele>1494</ele>
        <time>2026-09-01T08:34:34.000Z</time>
      </trkpt>
      <trkpt lat="46.20795" lon="6.77628">
        <ele>1494</ele>
        <time>2026-09-01T08:35:38.000Z</time>
      </trkpt>
      <trkpt lat="46.20758" lon="6.77686">
        <ele>1495</ele>
        <time>2026-09-01T08:36:51.000Z</time>
      </trkpt>
      <trkpt lat="46.20733" lon="6.77704">
        <ele>1495</ele>
        <time>2026-09-01T08:37:22.000Z</time>
      </trkpt>
      <trkpt lat="46.20707" lon="6.77733">
        <ele>1496</ele>
        <time>2026-09-01T08:38:10.000Z</time>
      </trkpt>
      <trkpt lat="46.20696" lon="6.77755">
        <ele>1496</ele>
        <time>2026-09-01T08:38:32.000Z</time>
      </trkpt>
      <trkpt lat="46.20627" lon="6.7782">
        <ele>1497</ele>
        <time>2026-09-01T08:40:16.000Z</time>
      </trkpt>
      <trkpt lat="46.20636" lon="6.77842">
        <ele>1497</ele>
        <time>2026-09-01T08:40:37.000Z</time>
      </trkpt>
      <trkpt lat="46.20638" lon="6.7787">
        <ele>1498</ele>
        <time>2026-09-01T08:41:09.000Z</time>
      </trkpt>
      <trkpt lat="46.20635" lon="6.77894">
        <ele>1498</ele>
        <time>2026-09-01T08:41:28.000Z</time>
      </trkpt>
      <trkpt lat="46.2061" lon="6.77964">
        <ele>1505</ele>
        <time>2026-09-01T08:43:43.000Z</time>
      </trkpt>
      <trkpt lat="46.20586" lon="6.78008">
        <ele>1512</ele>
        <time>2026-09-01T08:45:39.000Z</time>
      </trkpt>
      <trkpt lat="46.20567" lon="6.78034">
        <ele>1518</ele>
        <time>2026-09-01T08:47:10.000Z</time>
      </trkpt>
      <trkpt lat="46.20505" lon="6.78114">
        <ele>1533</ele>
        <time>2026-09-01T08:51:20.000Z</time>
      </trkpt>
      <trkpt lat="46.20489" lon="6.78141">
        <ele>1536</ele>
        <time>2026-09-01T08:52:19.000Z</time>
      </trkpt>
      <trkpt lat="46.2047" lon="6.78197">
        <ele>1539</ele>
        <time>2026-09-01T08:53:40.000Z</time>
      </trkpt>
      <trkpt lat="46.20464" lon="6.78198">
        <ele>1540</ele>
        <time>2026-09-01T08:53:57.000Z</time>
      </trkpt>
      <trkpt lat="46.20454" lon="6.78209">
        <ele>1540</ele>
        <time>2026-09-01T08:54:11.000Z</time>
      </trkpt>
      <trkpt lat="46.20448" lon="6.78221">
        <ele>1541</ele>
        <time>2026-09-01T08:54:33.000Z</time>
      </trkpt>
      <trkpt lat="46.20447" lon="6.78242">
        <ele>1542</ele>
        <time>2026-09-01T08:55:00.000Z</time>
      </trkpt>
      <trkpt lat="46.2044" lon="6.7826">
        <ele>1543</ele>
        <time>2026-09-01T08:55:27.000Z</time>
      </trkpt>
      <trkpt lat="46.20431" lon="6.78265">
        <ele>1542</ele>
        <time>2026-09-01T08:55:37.000Z</time>
      </trkpt>
      <trkpt lat="46.20405" lon="6.78269">
        <ele>1543</ele>
        <time>2026-09-01T08:56:18.000Z</time>
      </trkpt>
      <trkpt lat="46.20391" lon="6.78287">
        <ele>1543</ele>
        <time>2026-09-01T08:56:40.000Z</time>
      </trkpt>
      <trkpt lat="46.20378" lon="6.78292">
        <ele>1543</ele>
        <time>2026-09-01T08:56:55.000Z</time>
      </trkpt>
      <trkpt lat="46.20351" lon="6.78287">
        <ele>1545</ele>
        <time>2026-09-01T08:57:47.000Z</time>
      </trkpt>
      <trkpt lat="46.20325" lon="6.78298">
        <ele>1546</ele>
        <time>2026-09-01T08:58:29.000Z</time>
      </trkpt>
      <trkpt lat="46.20321" lon="6.78312">
        <ele>1545</ele>
        <time>2026-09-01T08:58:40.000Z</time>
      </trkpt>
      <trkpt lat="46.20322" lon="6.78344">
        <ele>1545</ele>
        <time>2026-09-01T08:59:05.000Z</time>
      </trkpt>
      <trkpt lat="46.20316" lon="6.78378">
        <ele>1545</ele>
        <time>2026-09-01T08:59:33.000Z</time>
      </trkpt>
      <trkpt lat="46.20305" lon="6.78404">
        <ele>1546</ele>
        <time>2026-09-01T09:00:08.000Z</time>
      </trkpt>
      <trkpt lat="46.20289" lon="6.78422">
        <ele>1546</ele>
        <time>2026-09-01T09:00:31.000Z</time>
      </trkpt>
      <trkpt lat="46.20267" lon="6.78449">
        <ele>1547</ele>
        <time>2026-09-01T09:01:14.000Z</time>
      </trkpt>
      <trkpt lat="46.20258" lon="6.78469">
        <ele>1548</ele>
        <time>2026-09-01T09:01:43.000Z</time>
      </trkpt>
      <trkpt lat="46.20256" lon="6.78478">
        <ele>1548</ele>
        <time>2026-09-01T09:01:51.000Z</time>
      </trkpt>
      <trkpt lat="46.20246" lon="6.78492">
        <ele>1549</ele>
        <time>2026-09-01T09:02:17.000Z</time>
      </trkpt>
      <trkpt lat="46.20203" lon="6.78515">
        <ele>1552</ele>
        <time>2026-09-01T09:03:41.000Z</time>
      </trkpt>
      <trkpt lat="46.20174" lon="6.78537">
        <ele>1554</ele>
        <time>2026-09-01T09:04:40.000Z</time>
      </trkpt>
      <trkpt lat="46.20147" lon="6.78536">
        <ele>1556</ele>
        <time>2026-09-01T09:05:31.000Z</time>
      </trkpt>
      <trkpt lat="46.20141" lon="6.78538">
        <ele>1556</ele>
        <time>2026-09-01T09:05:38.000Z</time>
      </trkpt>
      <trkpt lat="46.20114" lon="6.7857">
        <ele>1560</ele>
        <time>2026-09-01T09:06:59.000Z</time>
      </trkpt>
      <trkpt lat="46.20091" lon="6.78584">
        <ele>1565</ele>
        <time>2026-09-01T09:08:19.000Z</time>
      </trkpt>
      <trkpt lat="46.20089" lon="6.78591">
        <ele>1565</ele>
        <time>2026-09-01T09:08:25.000Z</time>
      </trkpt>
      <trkpt lat="46.20063" lon="6.78605">
        <ele>1570</ele>
        <time>2026-09-01T09:09:48.000Z</time>
      </trkpt>
      <trkpt lat="46.20038" lon="6.78638">
        <ele>1573</ele>
        <time>2026-09-01T09:10:58.000Z</time>
      </trkpt>
      <trkpt lat="46.20027" lon="6.78649">
        <ele>1574</ele>
        <time>2026-09-01T09:11:23.000Z</time>
      </trkpt>
      <trkpt lat="46.20008" lon="6.78655">
        <ele>1577</ele>
        <time>2026-09-01T09:12:17.000Z</time>
      </trkpt>
      <trkpt lat="46.19985" lon="6.78672">
        <ele>1576</ele>
        <time>2026-09-01T09:12:46.000Z</time>
      </trkpt>
      <trkpt lat="46.19951" lon="6.7866">
        <ele>1577</ele>
        <time>2026-09-01T09:13:37.000Z</time>
      </trkpt>
      <trkpt lat="46.19944" lon="6.78656">
        <ele>1577</ele>
        <time>2026-09-01T09:13:45.000Z</time>
      </trkpt>
      <trkpt lat="46.1994" lon="6.78648">
        <ele>1578</ele>
        <time>2026-09-01T09:14:03.000Z</time>
      </trkpt>
      <trkpt lat="46.1993" lon="6.78645">
        <ele>1578</ele>
        <time>2026-09-01T09:14:14.000Z</time>
      </trkpt>
      <trkpt lat="46.19924" lon="6.78649">
        <ele>1577</ele>
        <time>2026-09-01T09:14:21.000Z</time>
      </trkpt>
      <trkpt lat="46.19908" lon="6.78679">
        <ele>1578</ele>
        <time>2026-09-01T09:15:02.000Z</time>
      </trkpt>
      <trkpt lat="46.19898" lon="6.78695">
        <ele>1579</ele>
        <time>2026-09-01T09:15:29.000Z</time>
      </trkpt>
      <trkpt lat="46.19879" lon="6.78707">
        <ele>1582</ele>
        <time>2026-09-01T09:16:24.000Z</time>
      </trkpt>
      <trkpt lat="46.19882" lon="6.78739">
        <ele>1579</ele>
        <time>2026-09-01T09:16:49.000Z</time>
      </trkpt>
      <trkpt lat="46.19879" lon="6.78767">
        <ele>1580</ele>
        <time>2026-09-01T09:17:22.000Z</time>
      </trkpt>
      <trkpt lat="46.19874" lon="6.78775">
        <ele>1580</ele>
        <time>2026-09-01T09:17:31.000Z</time>
      </trkpt>
      <trkpt lat="46.1984" lon="6.78804">
        <ele>1580</ele>
        <time>2026-09-01T09:18:16.000Z</time>
      </trkpt>
      <trkpt lat="46.19837" lon="6.78813">
        <ele>1580</ele>
        <time>2026-09-01T09:18:23.000Z</time>
      </trkpt>
      <trkpt lat="46.19828" lon="6.78818">
        <ele>1580</ele>
        <time>2026-09-01T09:18:34.000Z</time>
      </trkpt>
      <trkpt lat="46.19799" lon="6.78837">
        <ele>1581</ele>
        <time>2026-09-01T09:19:21.000Z</time>
      </trkpt>
      <trkpt lat="46.19781" lon="6.78869">
        <ele>1584</ele>
        <time>2026-09-01T09:20:24.000Z</time>
      </trkpt>
      <trkpt lat="46.19757" lon="6.78883">
        <ele>1585</ele>
        <time>2026-09-01T09:21:04.000Z</time>
      </trkpt>
      <trkpt lat="46.1975" lon="6.78894">
        <ele>1586</ele>
        <time>2026-09-01T09:21:26.000Z</time>
      </trkpt>
      <trkpt lat="46.19741" lon="6.78881">
        <ele>1587</ele>
        <time>2026-09-01T09:21:51.000Z</time>
      </trkpt>
      <trkpt lat="46.1973" lon="6.78884">
        <ele>1588</ele>
        <time>2026-09-01T09:22:14.000Z</time>
      </trkpt>
      <trkpt lat="46.19726" lon="6.78908">
        <ele>1591</ele>
        <time>2026-09-01T09:23:04.000Z</time>
      </trkpt>
      <trkpt lat="46.1973" lon="6.78884">
        <ele>1588</ele>
        <time>2026-09-01T09:23:23.000Z</time>
      </trkpt>
      <trkpt lat="46.19741" lon="6.78881">
        <ele>1587</ele>
        <time>2026-09-01T09:23:36.000Z</time>
      </trkpt>
      <trkpt lat="46.1975" lon="6.78894">
        <ele>1586</ele>
        <time>2026-09-01T09:23:51.000Z</time>
      </trkpt>
      <trkpt lat="46.19757" lon="6.78883">
        <ele>1585</ele>
        <time>2026-09-01T09:24:03.000Z</time>
      </trkpt>
      <trkpt lat="46.19781" lon="6.78869">
        <ele>1584</ele>
        <time>2026-09-01T09:24:33.000Z</time>
      </trkpt>
      <trkpt lat="46.19799" lon="6.78837">
        <ele>1581</ele>
        <time>2026-09-01T09:25:05.000Z</time>
      </trkpt>
      <trkpt lat="46.19838" lon="6.7881">
        <ele>1580</ele>
        <time>2026-09-01T09:25:54.000Z</time>
      </trkpt>
      <trkpt lat="46.1984" lon="6.78804">
        <ele>1580</ele>
        <time>2026-09-01T09:25:59.000Z</time>
      </trkpt>
      <trkpt lat="46.19853" lon="6.78791">
        <ele>1580</ele>
        <time>2026-09-01T09:26:17.000Z</time>
      </trkpt>
      <trkpt lat="46.19874" lon="6.78775">
        <ele>1580</ele>
        <time>2026-09-01T09:26:44.000Z</time>
      </trkpt>
      <trkpt lat="46.19879" lon="6.78767">
        <ele>1580</ele>
        <time>2026-09-01T09:26:53.000Z</time>
      </trkpt>
      <trkpt lat="46.19882" lon="6.7875">
        <ele>1579</ele>
        <time>2026-09-01T09:27:07.000Z</time>
      </trkpt>
      <trkpt lat="46.1993" lon="6.78764">
        <ele>1582</ele>
        <time>2026-09-01T09:28:34.000Z</time>
      </trkpt>
      <trkpt lat="46.19975" lon="6.78755">
        <ele>1585</ele>
        <time>2026-09-01T09:29:57.000Z</time>
      </trkpt>
      <trkpt lat="46.20003" lon="6.78727">
        <ele>1586</ele>
        <time>2026-09-01T09:30:46.000Z</time>
      </trkpt>
      <trkpt lat="46.20017" lon="6.78721">
        <ele>1589</ele>
        <time>2026-09-01T09:31:34.000Z</time>
      </trkpt>
      <trkpt lat="46.20046" lon="6.78723">
        <ele>1592</ele>
        <time>2026-09-01T09:32:38.000Z</time>
      </trkpt>
      <trkpt lat="46.20066" lon="6.78719">
        <ele>1592</ele>
        <time>2026-09-01T09:33:01.000Z</time>
      </trkpt>
      <trkpt lat="46.201" lon="6.78726">
        <ele>1591</ele>
        <time>2026-09-01T09:33:40.000Z</time>
      </trkpt>
      <trkpt lat="46.20122" lon="6.78739">
        <ele>1590</ele>
        <time>2026-09-01T09:34:07.000Z</time>
      </trkpt>
      <trkpt lat="46.20143" lon="6.78739">
        <ele>1589</ele>
        <time>2026-09-01T09:34:31.000Z</time>
      </trkpt>
      <trkpt lat="46.20086" lon="6.78836">
        <ele>1601</ele>
        <time>2026-09-01T09:38:16.000Z</time>
      </trkpt>
      <trkpt lat="46.20073" lon="6.78864">
        <ele>1605</ele>
        <time>2026-09-01T09:39:23.000Z</time>
      </trkpt>
      <trkpt lat="46.20019" lon="6.7892">
        <ele>1621</ele>
        <time>2026-09-01T09:43:24.000Z</time>
      </trkpt>
      <trkpt lat="46.19986" lon="6.78949">
        <ele>1627</ele>
        <time>2026-09-01T09:45:11.000Z</time>
      </trkpt>
      <trkpt lat="46.19965" lon="6.78961">
        <ele>1632</ele>
        <time>2026-09-01T09:46:28.000Z</time>
      </trkpt>
      <trkpt lat="46.1995" lon="6.78964">
        <ele>1633</ele>
        <time>2026-09-01T09:46:56.000Z</time>
      </trkpt>
      <trkpt lat="46.19892" lon="6.78963">
        <ele>1639</ele>
        <time>2026-09-01T09:49:04.000Z</time>
      </trkpt>
      <trkpt lat="46.19833" lon="6.78987">
        <ele>1648</ele>
        <time>2026-09-01T09:51:46.000Z</time>
      </trkpt>
      <trkpt lat="46.19805" lon="6.79031">
        <ele>1656</ele>
        <time>2026-09-01T09:53:56.000Z</time>
      </trkpt>
      <trkpt lat="46.19793" lon="6.7906">
        <ele>1661</ele>
        <time>2026-09-01T09:55:14.000Z</time>
      </trkpt>
      <trkpt lat="46.19787" lon="6.79082">
        <ele>1666</ele>
        <time>2026-09-01T09:56:24.000Z</time>
      </trkpt>
      <trkpt lat="46.1977" lon="6.79119">
        <ele>1672</ele>
        <time>2026-09-01T09:58:01.000Z</time>
      </trkpt>
      <trkpt lat="46.19717" lon="6.79176">
        <ele>1684</ele>
        <time>2026-09-01T10:01:20.000Z</time>
      </trkpt>
      <trkpt lat="46.19687" lon="6.79214">
        <ele>1692</ele>
        <time>2026-09-01T10:03:28.000Z</time>
      </trkpt>
      <trkpt lat="46.19685" lon="6.7923">
        <ele>1695</ele>
        <time>2026-09-01T10:04:12.000Z</time>
      </trkpt>
      <trkpt lat="46.19688" lon="6.7926">
        <ele>1699</ele>
        <time>2026-09-01T10:05:17.000Z</time>
      </trkpt>
      <trkpt lat="46.19669" lon="6.79318">
        <ele>1709</ele>
        <time>2026-09-01T10:07:51.000Z</time>
      </trkpt>
      <trkpt lat="46.19666" lon="6.79367">
        <ele>1710</ele>
        <time>2026-09-01T10:08:41.000Z</time>
      </trkpt>
      <trkpt lat="46.19659" lon="6.79396">
        <ele>1713</ele>
        <time>2026-09-01T10:09:36.000Z</time>
      </trkpt>
      <trkpt lat="46.1961" lon="6.79454">
        <ele>1717</ele>
        <time>2026-09-01T10:11:29.000Z</time>
      </trkpt>
      <trkpt lat="46.19593" lon="6.79479">
        <ele>1718</ele>
        <time>2026-09-01T10:12:07.000Z</time>
      </trkpt>
      <trkpt lat="46.19577" lon="6.79518">
        <ele>1721</ele>
        <time>2026-09-01T10:13:13.000Z</time>
      </trkpt>
      <trkpt lat="46.19568" lon="6.79549">
        <ele>1723</ele>
        <time>2026-09-01T10:14:01.000Z</time>
      </trkpt>
      <trkpt lat="46.19564" lon="6.79575">
        <ele>1725</ele>
        <time>2026-09-01T10:14:42.000Z</time>
      </trkpt>
      <trkpt lat="46.19561" lon="6.79649">
        <ele>1737</ele>
        <time>2026-09-01T10:17:44.000Z</time>
      </trkpt>
      <trkpt lat="46.1955" lon="6.79696">
        <ele>1747</ele>
        <time>2026-09-01T10:20:07.000Z</time>
      </trkpt>
      <trkpt lat="46.19546" lon="6.7973">
        <ele>1752</ele>
        <time>2026-09-01T10:21:26.000Z</time>
      </trkpt>
      <trkpt lat="46.19527" lon="6.79823">
        <ele>1768</ele>
        <time>2026-09-01T10:25:27.000Z</time>
      </trkpt>
      <trkpt lat="46.19525" lon="6.79846">
        <ele>1771</ele>
        <time>2026-09-01T10:26:17.000Z</time>
      </trkpt>
      <trkpt lat="46.19529" lon="6.79894">
        <ele>1778</ele>
        <time>2026-09-01T10:28:07.000Z</time>
      </trkpt>
      <trkpt lat="46.19527" lon="6.79919">
        <ele>1782</ele>
        <time>2026-09-01T10:29:08.000Z</time>
      </trkpt>
      <trkpt lat="46.19531" lon="6.79957">
        <ele>1788</ele>
        <time>2026-09-01T10:30:40.000Z</time>
      </trkpt>
      <trkpt lat="46.19531" lon="6.80006">
        <ele>1798</ele>
        <time>2026-09-01T10:33:02.000Z</time>
      </trkpt>
      <trkpt lat="46.19519" lon="6.80036">
        <ele>1802</ele>
        <time>2026-09-01T10:34:10.000Z</time>
      </trkpt>
      <trkpt lat="46.19514" lon="6.80062">
        <ele>1804</ele>
        <time>2026-09-01T10:34:52.000Z</time>
      </trkpt>
      <trkpt lat="46.19549" lon="6.8008">
        <ele>1814</ele>
        <time>2026-09-01T10:37:17.000Z</time>
      </trkpt>
      <trkpt lat="46.19558" lon="6.80089">
        <ele>1819</ele>
        <time>2026-09-01T10:38:21.000Z</time>
      </trkpt>
      <trkpt lat="46.19562" lon="6.80109">
        <ele>1825</ele>
        <time>2026-09-01T10:39:39.000Z</time>
      </trkpt>
      <trkpt lat="46.19567" lon="6.80112">
        <ele>1828</ele>
        <time>2026-09-01T10:40:17.000Z</time>
      </trkpt>
      <trkpt lat="46.19568" lon="6.80139">
        <ele>1831</ele>
        <time>2026-09-01T10:41:09.000Z</time>
      </trkpt>
      <trkpt lat="46.1955" lon="6.80191">
        <ele>1835</ele>
        <time>2026-09-01T10:42:36.000Z</time>
      </trkpt>
      <trkpt lat="46.19549" lon="6.80223">
        <ele>1843</ele>
        <time>2026-09-01T10:44:23.000Z</time>
      </trkpt>
      <trkpt lat="46.19552" lon="6.80227">
        <ele>1846</ele>
        <time>2026-09-01T10:44:59.000Z</time>
      </trkpt>
      <trkpt lat="46.19552" lon="6.80246">
        <ele>1850</ele>
        <time>2026-09-01T10:45:55.000Z</time>
      </trkpt>
      <trkpt lat="46.19559" lon="6.80257">
        <ele>1858</ele>
        <time>2026-09-01T10:47:29.000Z</time>
      </trkpt>
      <trkpt lat="46.1956" lon="6.80274">
        <ele>1864</ele>
        <time>2026-09-01T10:48:44.000Z</time>
      </trkpt>
      <trkpt lat="46.1955" lon="6.80301">
        <ele>1871</ele>
        <time>2026-09-01T10:50:21.000Z</time>
      </trkpt>
      <trkpt lat="46.19541" lon="6.80312">
        <ele>1875</ele>
        <time>2026-09-01T10:51:15.000Z</time>
      </trkpt>
      <trkpt lat="46.19547" lon="6.80322">
        <ele>1880</ele>
        <time>2026-09-01T10:52:17.000Z</time>
      </trkpt>
      <trkpt lat="46.1954" lon="6.80333">
        <ele>1880</ele>
        <time>2026-09-01T10:52:29.000Z</time>
      </trkpt>
      <trkpt lat="46.19542" lon="6.80341">
        <ele>1884</ele>
        <time>2026-09-01T10:53:17.000Z</time>
      </trkpt>
      <trkpt lat="46.19527" lon="6.80399">
        <ele>1901</ele>
        <time>2026-09-01T10:57:01.000Z</time>
      </trkpt>
      <trkpt lat="46.19512" lon="6.8042">
        <ele>1906</ele>
        <time>2026-09-01T10:58:16.000Z</time>
      </trkpt>
      <trkpt lat="46.19519" lon="6.80427">
        <ele>1911</ele>
        <time>2026-09-01T10:59:17.000Z</time>
      </trkpt>
      <trkpt lat="46.19511" lon="6.80438">
        <ele>1913</ele>
        <time>2026-09-01T10:59:51.000Z</time>
      </trkpt>
      <trkpt lat="46.19497" lon="6.80448">
        <ele>1915</ele>
        <time>2026-09-01T11:00:29.000Z</time>
      </trkpt>
      <trkpt lat="46.19495" lon="6.80454">
        <ele>1917</ele>
        <time>2026-09-01T11:00:55.000Z</time>
      </trkpt>
      <trkpt lat="46.19502" lon="6.80459">
        <ele>1921</ele>
        <time>2026-09-01T11:01:46.000Z</time>
      </trkpt>
      <trkpt lat="46.195" lon="6.80476">
        <ele>1927</ele>
        <time>2026-09-01T11:03:02.000Z</time>
      </trkpt>
      <trkpt lat="46.19508" lon="6.80478">
        <ele>1931</ele>
        <time>2026-09-01T11:03:53.000Z</time>
      </trkpt>
      <trkpt lat="46.195" lon="6.80493">
        <ele>1935</ele>
        <time>2026-09-01T11:04:49.000Z</time>
      </trkpt>
      <trkpt lat="46.19502" lon="6.80501">
        <ele>1938</ele>
        <time>2026-09-01T11:05:27.000Z</time>
      </trkpt>
      <trkpt lat="46.1953" lon="6.80495">
        <ele>1945</ele>
        <time>2026-09-01T11:07:11.000Z</time>
      </trkpt>
      <trkpt lat="46.19553" lon="6.80483">
        <ele>1948</ele>
        <time>2026-09-01T11:08:10.000Z</time>
      </trkpt>
      <trkpt lat="46.1958" lon="6.80492">
        <ele>1958</ele>
        <time>2026-09-01T11:10:25.000Z</time>
      </trkpt>
      <trkpt lat="46.1959" lon="6.80488">
        <ele>1959</ele>
        <time>2026-09-01T11:10:47.000Z</time>
      </trkpt>
      <trkpt lat="46.19598" lon="6.8049">
        <ele>1962</ele>
        <time>2026-09-01T11:11:27.000Z</time>
      </trkpt>
      <trkpt lat="46.19614" lon="6.80485">
        <ele>1968</ele>
        <time>2026-09-01T11:12:47.000Z</time>
      </trkpt>
      <trkpt lat="46.19632" lon="6.80473">
        <ele>1972</ele>
        <time>2026-09-01T11:13:51.000Z</time>
      </trkpt>
      <trkpt lat="46.19644" lon="6.80471">
        <ele>1977</ele>
        <time>2026-09-01T11:14:56.000Z</time>
      </trkpt>
      <trkpt lat="46.19645" lon="6.80479">
        <ele>1978</ele>
        <time>2026-09-01T11:15:12.000Z</time>
      </trkpt>
      <trkpt lat="46.1964" lon="6.805">
        <ele>1982</ele>
        <time>2026-09-01T11:16:10.000Z</time>
      </trkpt>
      <trkpt lat="46.19631" lon="6.80527">
        <ele>1987</ele>
        <time>2026-09-01T11:17:25.000Z</time>
      </trkpt>
      <trkpt lat="46.1965" lon="6.80534">
        <ele>1991</ele>
        <time>2026-09-01T11:18:29.000Z</time>
      </trkpt>
      <trkpt lat="46.19664" lon="6.80563">
        <ele>1994</ele>
        <time>2026-09-01T11:19:27.000Z</time>
      </trkpt>
      <trkpt lat="46.1968" lon="6.8057">
        <ele>1995</ele>
        <time>2026-09-01T11:19:56.000Z</time>
      </trkpt>
      <trkpt lat="46.19652" lon="6.80675">
        <ele>1991</ele>
        <time>2026-09-01T11:21:25.000Z</time>
      </trkpt>
      <trkpt lat="46.1967" lon="6.8075">
        <ele>1993</ele>
        <time>2026-09-01T11:22:48.000Z</time>
      </trkpt>
      <trkpt lat="46.19664" lon="6.80784">
        <ele>1990</ele>
        <time>2026-09-01T11:23:16.000Z</time>
      </trkpt>
      <trkpt lat="46.19646" lon="6.80833">
        <ele>1989</ele>
        <time>2026-09-01T11:24:00.000Z</time>
      </trkpt>
      <trkpt lat="46.19644" lon="6.80859">
        <ele>1988</ele>
        <time>2026-09-01T11:24:21.000Z</time>
      </trkpt>
      <trkpt lat="46.19656" lon="6.8091">
        <ele>1986</ele>
        <time>2026-09-01T11:25:04.000Z</time>
      </trkpt>
      <trkpt lat="46.19655" lon="6.80918">
        <ele>1986</ele>
        <time>2026-09-01T11:25:10.000Z</time>
      </trkpt>
      <trkpt lat="46.19649" lon="6.80976">
        <ele>1986</ele>
        <time>2026-09-01T11:25:57.000Z</time>
      </trkpt>
      <trkpt lat="46.19656" lon="6.81046">
        <ele>1990</ele>
        <time>2026-09-01T11:27:34.000Z</time>
      </trkpt>
      <trkpt lat="46.19655" lon="6.81085">
        <ele>1990</ele>
        <time>2026-09-01T11:28:05.000Z</time>
      </trkpt>
      <trkpt lat="46.19651" lon="6.81112">
        <ele>1986</ele>
        <time>2026-09-01T11:28:27.000Z</time>
      </trkpt>
      <trkpt lat="46.19638" lon="6.81136">
        <ele>1983</ele>
        <time>2026-09-01T11:28:50.000Z</time>
      </trkpt>
      <trkpt lat="46.1964" lon="6.81142">
        <ele>1981</ele>
        <time>2026-09-01T11:28:55.000Z</time>
      </trkpt>
      <trkpt lat="46.19647" lon="6.81168">
        <ele>1976</ele>
        <time>2026-09-01T11:29:17.000Z</time>
      </trkpt>
      <trkpt lat="46.19622" lon="6.81212">
        <ele>1985</ele>
        <time>2026-09-01T11:31:34.000Z</time>
      </trkpt>
      <trkpt lat="46.19637" lon="6.81294">
        <ele>1983</ele>
        <time>2026-09-01T11:32:41.000Z</time>
      </trkpt>
      <trkpt lat="46.19651" lon="6.8132">
        <ele>1983</ele>
        <time>2026-09-01T11:33:07.000Z</time>
      </trkpt>
      <trkpt lat="46.19609" lon="6.81402">
        <ele>1981</ele>
        <time>2026-09-01T11:34:28.000Z</time>
      </trkpt>
      <trkpt lat="46.19586" lon="6.81428">
        <ele>1984</ele>
        <time>2026-09-01T11:35:32.000Z</time>
      </trkpt>
      <trkpt lat="46.19592" lon="6.81451">
        <ele>1982</ele>
        <time>2026-09-01T11:35:52.000Z</time>
      </trkpt>
      <trkpt lat="46.19591" lon="6.81456">
        <ele>1982</ele>
        <time>2026-09-01T11:35:56.000Z</time>
      </trkpt>
      <trkpt lat="46.19592" lon="6.81451">
        <ele>1982</ele>
        <time>2026-09-01T11:36:00.000Z</time>
      </trkpt>
      <trkpt lat="46.19586" lon="6.81428">
        <ele>1984</ele>
        <time>2026-09-01T11:36:40.000Z</time>
      </trkpt>
      <trkpt lat="46.19609" lon="6.81402">
        <ele>1981</ele>
        <time>2026-09-01T11:37:13.000Z</time>
      </trkpt>
      <trkpt lat="46.19651" lon="6.8132">
        <ele>1983</ele>
        <time>2026-09-01T11:38:55.000Z</time>
      </trkpt>
      <trkpt lat="46.19655" lon="6.81309">
        <ele>1982</ele>
        <time>2026-09-01T11:39:05.000Z</time>
      </trkpt>
      <trkpt lat="46.19665" lon="6.813">
        <ele>1979</ele>
        <time>2026-09-01T11:39:19.000Z</time>
      </trkpt>
      <trkpt lat="46.19666" lon="6.81294">
        <ele>1978</ele>
        <time>2026-09-01T11:39:25.000Z</time>
      </trkpt>
      <trkpt lat="46.19748" lon="6.81288">
        <ele>1971</ele>
        <time>2026-09-01T11:40:59.000Z</time>
      </trkpt>
      <trkpt lat="46.19787" lon="6.81229">
        <ele>1966</ele>
        <time>2026-09-01T11:42:03.000Z</time>
      </trkpt>
      <trkpt lat="46.19816" lon="6.81176">
        <ele>1964</ele>
        <time>2026-09-01T11:42:56.000Z</time>
      </trkpt>
      <trkpt lat="46.19816" lon="6.81168">
        <ele>1965</ele>
        <time>2026-09-01T11:43:13.000Z</time>
      </trkpt>
      <trkpt lat="46.198" lon="6.81135">
        <ele>1967</ele>
        <time>2026-09-01T11:44:05.000Z</time>
      </trkpt>
      <trkpt lat="46.19788" lon="6.81123">
        <ele>1968</ele>
        <time>2026-09-01T11:44:32.000Z</time>
      </trkpt>
      <trkpt lat="46.19782" lon="6.81095">
        <ele>1970</ele>
        <time>2026-09-01T11:45:16.000Z</time>
      </trkpt>
      <trkpt lat="46.19769" lon="6.81075">
        <ele>1970</ele>
        <time>2026-09-01T11:45:39.000Z</time>
      </trkpt>
      <trkpt lat="46.1978" lon="6.81029">
        <ele>1969</ele>
        <time>2026-09-01T11:46:17.000Z</time>
      </trkpt>
      <trkpt lat="46.198" lon="6.81008">
        <ele>1968</ele>
        <time>2026-09-01T11:46:45.000Z</time>
      </trkpt>
      <trkpt lat="46.19802" lon="6.8099">
        <ele>1969</ele>
        <time>2026-09-01T11:47:10.000Z</time>
      </trkpt>
      <trkpt lat="46.19796" lon="6.80967">
        <ele>1970</ele>
        <time>2026-09-01T11:47:40.000Z</time>
      </trkpt>
      <trkpt lat="46.19783" lon="6.80952">
        <ele>1971</ele>
        <time>2026-09-01T11:48:10.000Z</time>
      </trkpt>
      <trkpt lat="46.19784" lon="6.80927">
        <ele>1974</ele>
        <time>2026-09-01T11:49:01.000Z</time>
      </trkpt>
      <trkpt lat="46.19773" lon="6.80905">
        <ele>1975</ele>
        <time>2026-09-01T11:49:33.000Z</time>
      </trkpt>
      <trkpt lat="46.19783" lon="6.80894">
        <ele>1975</ele>
        <time>2026-09-01T11:49:48.000Z</time>
      </trkpt>
      <trkpt lat="46.19786" lon="6.80885">
        <ele>1975</ele>
        <time>2026-09-01T11:49:56.000Z</time>
      </trkpt>
      <trkpt lat="46.19783" lon="6.80864">
        <ele>1975</ele>
        <time>2026-09-01T11:50:13.000Z</time>
      </trkpt>
      <trkpt lat="46.19783" lon="6.80855">
        <ele>1976</ele>
        <time>2026-09-01T11:50:31.000Z</time>
      </trkpt>
      <trkpt lat="46.19776" lon="6.80846">
        <ele>1976</ele>
        <time>2026-09-01T11:50:42.000Z</time>
      </trkpt>
      <trkpt lat="46.19757" lon="6.80837">
        <ele>1977</ele>
        <time>2026-09-01T11:51:15.000Z</time>
      </trkpt>
      <trkpt lat="46.19756" lon="6.80795">
        <ele>1982</ele>
        <time>2026-09-01T11:52:40.000Z</time>
      </trkpt>
      <trkpt lat="46.19743" lon="6.80772">
        <ele>1986</ele>
        <time>2026-09-01T11:53:44.000Z</time>
      </trkpt>
      <trkpt lat="46.19724" lon="6.8072">
        <ele>1993</ele>
        <time>2026-09-01T11:55:43.000Z</time>
      </trkpt>
      <trkpt lat="46.197" lon="6.80697">
        <ele>1994</ele>
        <time>2026-09-01T11:56:26.000Z</time>
      </trkpt>
      <trkpt lat="46.19699" lon="6.80622">
        <ele>1993</ele>
        <time>2026-09-01T11:57:25.000Z</time>
      </trkpt>
      <trkpt lat="46.19686" lon="6.80573">
        <ele>1995</ele>
        <time>2026-09-01T11:58:27.000Z</time>
      </trkpt>
      <trkpt lat="46.19688" lon="6.80546">
        <ele>1995</ele>
        <time>2026-09-01T11:58:48.000Z</time>
      </trkpt>
      <trkpt lat="46.19694" lon="6.80527">
        <ele>1995</ele>
        <time>2026-09-01T11:59:05.000Z</time>
      </trkpt>
      <trkpt lat="46.19692" lon="6.80518">
        <ele>1994</ele>
        <time>2026-09-01T11:59:13.000Z</time>
      </trkpt>
      <trkpt lat="46.19685" lon="6.8053">
        <ele>1994</ele>
        <time>2026-09-01T11:59:26.000Z</time>
      </trkpt>
      <trkpt lat="46.19676" lon="6.80569">
        <ele>1995</ele>
        <time>2026-09-01T12:00:09.000Z</time>
      </trkpt>
      <trkpt lat="46.19664" lon="6.80563">
        <ele>1994</ele>
        <time>2026-09-01T12:00:23.000Z</time>
      </trkpt>
      <trkpt lat="46.1965" lon="6.80534">
        <ele>1991</ele>
        <time>2026-09-01T12:00:50.000Z</time>
      </trkpt>
      <trkpt lat="46.19631" lon="6.80527">
        <ele>1987</ele>
        <time>2026-09-01T12:01:13.000Z</time>
      </trkpt>
      <trkpt lat="46.1964" lon="6.805">
        <ele>1982</ele>
        <time>2026-09-01T12:01:37.000Z</time>
      </trkpt>
      <trkpt lat="46.19645" lon="6.80479">
        <ele>1978</ele>
        <time>2026-09-01T12:01:54.000Z</time>
      </trkpt>
      <trkpt lat="46.19644" lon="6.80471">
        <ele>1977</ele>
        <time>2026-09-01T12:02:00.000Z</time>
      </trkpt>
      <trkpt lat="46.19632" lon="6.80473">
        <ele>1972</ele>
        <time>2026-09-01T12:02:13.000Z</time>
      </trkpt>
      <trkpt lat="46.19601" lon="6.8049">
        <ele>1963</ele>
        <time>2026-09-01T12:02:51.000Z</time>
      </trkpt>
      <trkpt lat="46.1959" lon="6.80488">
        <ele>1959</ele>
        <time>2026-09-01T12:03:04.000Z</time>
      </trkpt>
      <trkpt lat="46.1958" lon="6.80492">
        <ele>1958</ele>
        <time>2026-09-01T12:03:16.000Z</time>
      </trkpt>
      <trkpt lat="46.19553" lon="6.80483">
        <ele>1948</ele>
        <time>2026-09-01T12:03:48.000Z</time>
      </trkpt>
      <trkpt lat="46.1953" lon="6.80495">
        <ele>1945</ele>
        <time>2026-09-01T12:04:16.000Z</time>
      </trkpt>
      <trkpt lat="46.19502" lon="6.80501">
        <ele>1938</ele>
        <time>2026-09-01T12:04:48.000Z</time>
      </trkpt>
      <trkpt lat="46.195" lon="6.80493">
        <ele>1935</ele>
        <time>2026-09-01T12:04:55.000Z</time>
      </trkpt>
      <trkpt lat="46.19508" lon="6.80478">
        <ele>1931</ele>
        <time>2026-09-01T12:05:10.000Z</time>
      </trkpt>
      <trkpt lat="46.195" lon="6.80476">
        <ele>1927</ele>
        <time>2026-09-01T12:05:20.000Z</time>
      </trkpt>
      <trkpt lat="46.19502" lon="6.80459">
        <ele>1921</ele>
        <time>2026-09-01T12:05:34.000Z</time>
      </trkpt>
      <trkpt lat="46.195" lon="6.80456">
        <ele>1919</ele>
        <time>2026-09-01T12:05:38.000Z</time>
      </trkpt>
      <trkpt lat="46.19495" lon="6.80454">
        <ele>1917</ele>
        <time>2026-09-01T12:05:44.000Z</time>
      </trkpt>
      <trkpt lat="46.19499" lon="6.80445">
        <ele>1914</ele>
        <time>2026-09-01T12:05:53.000Z</time>
      </trkpt>
      <trkpt lat="46.19509" lon="6.8044">
        <ele>1914</ele>
        <time>2026-09-01T12:06:05.000Z</time>
      </trkpt>
      <trkpt lat="46.19519" lon="6.80427">
        <ele>1911</ele>
        <time>2026-09-01T12:06:21.000Z</time>
      </trkpt>
      <trkpt lat="46.19512" lon="6.8042">
        <ele>1906</ele>
        <time>2026-09-01T12:06:31.000Z</time>
      </trkpt>
      <trkpt lat="46.19527" lon="6.80399">
        <ele>1901</ele>
        <time>2026-09-01T12:06:55.000Z</time>
      </trkpt>
      <trkpt lat="46.19542" lon="6.80341">
        <ele>1884</ele>
        <time>2026-09-01T12:07:44.000Z</time>
      </trkpt>
      <trkpt lat="46.1954" lon="6.80333">
        <ele>1880</ele>
        <time>2026-09-01T12:07:51.000Z</time>
      </trkpt>
      <trkpt lat="46.19547" lon="6.80322">
        <ele>1880</ele>
        <time>2026-09-01T12:08:03.000Z</time>
      </trkpt>
      <trkpt lat="46.19545" lon="6.80319">
        <ele>1879</ele>
        <time>2026-09-01T12:08:06.000Z</time>
      </trkpt>
      <trkpt lat="46.19542" lon="6.8031">
        <ele>1874</ele>
        <time>2026-09-01T12:08:14.000Z</time>
      </trkpt>
      <trkpt lat="46.1955" lon="6.80301">
        <ele>1871</ele>
        <time>2026-09-01T12:08:26.000Z</time>
      </trkpt>
      <trkpt lat="46.1956" lon="6.80276">
        <ele>1864</ele>
        <time>2026-09-01T12:08:49.000Z</time>
      </trkpt>
      <trkpt lat="46.19559" lon="6.80257">
        <ele>1858</ele>
        <time>2026-09-01T12:09:04.000Z</time>
      </trkpt>
      <trkpt lat="46.19552" lon="6.80246">
        <ele>1850</ele>
        <time>2026-09-01T12:09:16.000Z</time>
      </trkpt>
      <trkpt lat="46.19552" lon="6.80227">
        <ele>1846</ele>
        <time>2026-09-01T12:09:31.000Z</time>
      </trkpt>
      <trkpt lat="46.19549" lon="6.80223">
        <ele>1843</ele>
        <time>2026-09-01T12:09:36.000Z</time>
      </trkpt>
      <trkpt lat="46.1955" lon="6.80191">
        <ele>1835</ele>
        <time>2026-09-01T12:10:01.000Z</time>
      </trkpt>
      <trkpt lat="46.19568" lon="6.80139">
        <ele>1831</ele>
        <time>2026-09-01T12:10:47.000Z</time>
      </trkpt>
      <trkpt lat="46.19567" lon="6.80113">
        <ele>1828</ele>
        <time>2026-09-01T12:11:08.000Z</time>
      </trkpt>
      <trkpt lat="46.19562" lon="6.80109">
        <ele>1825</ele>
        <time>2026-09-01T12:11:15.000Z</time>
      </trkpt>
      <trkpt lat="46.19558" lon="6.80089">
        <ele>1819</ele>
        <time>2026-09-01T12:11:32.000Z</time>
      </trkpt>
      <trkpt lat="46.19549" lon="6.8008">
        <ele>1814</ele>
        <time>2026-09-01T12:11:44.000Z</time>
      </trkpt>
      <trkpt lat="46.19514" lon="6.80062">
        <ele>1804</ele>
        <time>2026-09-01T12:12:26.000Z</time>
      </trkpt>
      <trkpt lat="46.19519" lon="6.80036">
        <ele>1802</ele>
        <time>2026-09-01T12:12:48.000Z</time>
      </trkpt>
      <trkpt lat="46.19531" lon="6.80006">
        <ele>1798</ele>
        <time>2026-09-01T12:13:15.000Z</time>
      </trkpt>
      <trkpt lat="46.19531" lon="6.79957">
        <ele>1788</ele>
        <time>2026-09-01T12:13:54.000Z</time>
      </trkpt>
      <trkpt lat="46.19527" lon="6.79919">
        <ele>1782</ele>
        <time>2026-09-01T12:14:24.000Z</time>
      </trkpt>
      <trkpt lat="46.19529" lon="6.79894">
        <ele>1778</ele>
        <time>2026-09-01T12:14:44.000Z</time>
      </trkpt>
      <trkpt lat="46.19525" lon="6.79853">
        <ele>1771</ele>
        <time>2026-09-01T12:15:17.000Z</time>
      </trkpt>
      <trkpt lat="46.19528" lon="6.79816">
        <ele>1768</ele>
        <time>2026-09-01T12:15:46.000Z</time>
      </trkpt>
      <trkpt lat="46.19561" lon="6.79649">
        <ele>1737</ele>
        <time>2026-09-01T12:18:04.000Z</time>
      </trkpt>
      <trkpt lat="46.19565" lon="6.79566">
        <ele>1723</ele>
        <time>2026-09-01T12:19:10.000Z</time>
      </trkpt>
      <trkpt lat="46.19577" lon="6.79518">
        <ele>1721</ele>
        <time>2026-09-01T12:19:51.000Z</time>
      </trkpt>
      <trkpt lat="46.19593" lon="6.79479">
        <ele>1718</ele>
        <time>2026-09-01T12:20:26.000Z</time>
      </trkpt>
      <trkpt lat="46.19617" lon="6.79446">
        <ele>1717</ele>
        <time>2026-09-01T12:21:04.000Z</time>
      </trkpt>
      <trkpt lat="46.19657" lon="6.79401">
        <ele>1713</ele>
        <time>2026-09-01T12:22:02.000Z</time>
      </trkpt>
      <trkpt lat="46.19664" lon="6.79373">
        <ele>1709</ele>
        <time>2026-09-01T12:22:25.000Z</time>
      </trkpt>
      <trkpt lat="46.19669" lon="6.79318">
        <ele>1709</ele>
        <time>2026-09-01T12:23:09.000Z</time>
      </trkpt>
      <trkpt lat="46.19688" lon="6.7926">
        <ele>1699</ele>
        <time>2026-09-01T12:24:00.000Z</time>
      </trkpt>
      <trkpt lat="46.19685" lon="6.7923">
        <ele>1695</ele>
        <time>2026-09-01T12:24:24.000Z</time>
      </trkpt>
      <trkpt lat="46.19687" lon="6.79214">
        <ele>1692</ele>
        <time>2026-09-01T12:24:37.000Z</time>
      </trkpt>
      <trkpt lat="46.19717" lon="6.79176">
        <ele>1684</ele>
        <time>2026-09-01T12:25:22.000Z</time>
      </trkpt>
      <trkpt lat="46.19747" lon="6.79145">
        <ele>1678</ele>
        <time>2026-09-01T12:26:04.000Z</time>
      </trkpt>
      <trkpt lat="46.19777" lon="6.79109">
        <ele>1670</ele>
        <time>2026-09-01T12:26:48.000Z</time>
      </trkpt>
      <trkpt lat="46.19797" lon="6.79049">
        <ele>1660</ele>
        <time>2026-09-01T12:27:41.000Z</time>
      </trkpt>
      <trkpt lat="46.19829" lon="6.78991">
        <ele>1649</ele>
        <time>2026-09-01T12:28:40.000Z</time>
      </trkpt>
      <trkpt lat="46.19887" lon="6.78964">
        <ele>1640</ele>
        <time>2026-09-01T12:29:50.000Z</time>
      </trkpt>
      <trkpt lat="46.19916" lon="6.78962">
        <ele>1635</ele>
        <time>2026-09-01T12:30:23.000Z</time>
      </trkpt>
      <trkpt lat="46.19926" lon="6.78965">
        <ele>1634</ele>
        <time>2026-09-01T12:30:34.000Z</time>
      </trkpt>
      <trkpt lat="46.19965" lon="6.78961">
        <ele>1632</ele>
        <time>2026-09-01T12:31:19.000Z</time>
      </trkpt>
      <trkpt lat="46.20005" lon="6.78933">
        <ele>1623</ele>
        <time>2026-09-01T12:32:10.000Z</time>
      </trkpt>
      <trkpt lat="46.20055" lon="6.78884">
        <ele>1608</ele>
        <time>2026-09-01T12:33:20.000Z</time>
      </trkpt>
      <trkpt lat="46.20078" lon="6.78856">
        <ele>1603</ele>
        <time>2026-09-01T12:33:54.000Z</time>
      </trkpt>
      <trkpt lat="46.20089" lon="6.78828">
        <ele>1600</ele>
        <time>2026-09-01T12:34:19.000Z</time>
      </trkpt>
      <trkpt lat="46.20143" lon="6.78739">
        <ele>1589</ele>
        <time>2026-09-01T12:35:53.000Z</time>
      </trkpt>
      <trkpt lat="46.20122" lon="6.78739">
        <ele>1590</ele>
        <time>2026-09-01T12:36:27.000Z</time>
      </trkpt>
      <trkpt lat="46.201" lon="6.78726">
        <ele>1591</ele>
        <time>2026-09-01T12:37:04.000Z</time>
      </trkpt>
      <trkpt lat="46.20066" lon="6.78719">
        <ele>1592</ele>
        <time>2026-09-01T12:37:54.000Z</time>
      </trkpt>
      <trkpt lat="46.20046" lon="6.78723">
        <ele>1592</ele>
        <time>2026-09-01T12:38:17.000Z</time>
      </trkpt>
      <trkpt lat="46.20017" lon="6.78721">
        <ele>1589</ele>
        <time>2026-09-01T12:38:50.000Z</time>
      </trkpt>
      <trkpt lat="46.20004" lon="6.78726">
        <ele>1586</ele>
        <time>2026-09-01T12:39:06.000Z</time>
      </trkpt>
      <trkpt lat="46.19975" lon="6.78755">
        <ele>1585</ele>
        <time>2026-09-01T12:39:47.000Z</time>
      </trkpt>
      <trkpt lat="46.1993" lon="6.78764">
        <ele>1582</ele>
        <time>2026-09-01T12:40:38.000Z</time>
      </trkpt>
      <trkpt lat="46.19905" lon="6.78756">
        <ele>1580</ele>
        <time>2026-09-01T12:41:08.000Z</time>
      </trkpt>
      <trkpt lat="46.19882" lon="6.7875">
        <ele>1579</ele>
        <time>2026-09-01T12:41:35.000Z</time>
      </trkpt>
      <trkpt lat="46.19879" lon="6.78707">
        <ele>1582</ele>
        <time>2026-09-01T12:42:40.000Z</time>
      </trkpt>
      <trkpt lat="46.19905" lon="6.78686">
        <ele>1577</ele>
        <time>2026-09-01T12:43:14.000Z</time>
      </trkpt>
      <trkpt lat="46.19924" lon="6.78649">
        <ele>1577</ele>
        <time>2026-09-01T12:43:51.000Z</time>
      </trkpt>
      <trkpt lat="46.1993" lon="6.78645">
        <ele>1578</ele>
        <time>2026-09-01T12:44:09.000Z</time>
      </trkpt>
      <trkpt lat="46.19963" lon="6.78666">
        <ele>1578</ele>
        <time>2026-09-01T12:44:51.000Z</time>
      </trkpt>
      <trkpt lat="46.19979" lon="6.78672">
        <ele>1576</ele>
        <time>2026-09-01T12:45:10.000Z</time>
      </trkpt>
      <trkpt lat="46.19989" lon="6.7867">
        <ele>1576</ele>
        <time>2026-09-01T12:45:22.000Z</time>
      </trkpt>
      <trkpt lat="46.20008" lon="6.78655">
        <ele>1577</ele>
        <time>2026-09-01T12:45:57.000Z</time>
      </trkpt>
      <trkpt lat="46.20027" lon="6.78649">
        <ele>1574</ele>
        <time>2026-09-01T12:46:20.000Z</time>
      </trkpt>
      <trkpt lat="46.20063" lon="6.78605">
        <ele>1570</ele>
        <time>2026-09-01T12:47:14.000Z</time>
      </trkpt>
      <trkpt lat="46.20089" lon="6.78591">
        <ele>1565</ele>
        <time>2026-09-01T12:47:45.000Z</time>
      </trkpt>
      <trkpt lat="46.20091" lon="6.78584">
        <ele>1565</ele>
        <time>2026-09-01T12:47:51.000Z</time>
      </trkpt>
      <trkpt lat="46.20114" lon="6.7857">
        <ele>1560</ele>
        <time>2026-09-01T12:48:19.000Z</time>
      </trkpt>
      <trkpt lat="46.20141" lon="6.78538">
        <ele>1556</ele>
        <time>2026-09-01T12:48:59.000Z</time>
      </trkpt>
      <trkpt lat="46.20148" lon="6.78536">
        <ele>1556</ele>
        <time>2026-09-01T12:49:07.000Z</time>
      </trkpt>
      <trkpt lat="46.20174" lon="6.78537">
        <ele>1554</ele>
        <time>2026-09-01T12:49:36.000Z</time>
      </trkpt>
      <trkpt lat="46.20203" lon="6.78515">
        <ele>1552</ele>
        <time>2026-09-01T12:50:14.000Z</time>
      </trkpt>
      <trkpt lat="46.20246" lon="6.78492">
        <ele>1549</ele>
        <time>2026-09-01T12:51:07.000Z</time>
      </trkpt>
      <trkpt lat="46.20256" lon="6.78478">
        <ele>1548</ele>
        <time>2026-09-01T12:51:22.000Z</time>
      </trkpt>
      <trkpt lat="46.20258" lon="6.78469">
        <ele>1548</ele>
        <time>2026-09-01T12:51:30.000Z</time>
      </trkpt>
      <trkpt lat="46.20267" lon="6.78449">
        <ele>1547</ele>
        <time>2026-09-01T12:51:49.000Z</time>
      </trkpt>
      <trkpt lat="46.20305" lon="6.78404">
        <ele>1546</ele>
        <time>2026-09-01T12:52:45.000Z</time>
      </trkpt>
      <trkpt lat="46.20311" lon="6.78391">
        <ele>1546</ele>
        <time>2026-09-01T12:52:58.000Z</time>
      </trkpt>
      <trkpt lat="46.20321" lon="6.78354">
        <ele>1545</ele>
        <time>2026-09-01T12:53:29.000Z</time>
      </trkpt>
      <trkpt lat="46.2032" lon="6.78319">
        <ele>1545</ele>
        <time>2026-09-01T12:53:57.000Z</time>
      </trkpt>
      <trkpt lat="46.20329" lon="6.7832">
        <ele>1544</ele>
        <time>2026-09-01T12:54:07.000Z</time>
      </trkpt>
      <trkpt lat="46.20357" lon="6.78299">
        <ele>1544</ele>
        <time>2026-09-01T12:54:43.000Z</time>
      </trkpt>
      <trkpt lat="46.20373" lon="6.78298">
        <ele>1543</ele>
        <time>2026-09-01T12:55:02.000Z</time>
      </trkpt>
      <trkpt lat="46.20378" lon="6.78292">
        <ele>1543</ele>
        <time>2026-09-01T12:55:09.000Z</time>
      </trkpt>
      <trkpt lat="46.20391" lon="6.78287">
        <ele>1543</ele>
        <time>2026-09-01T12:55:24.000Z</time>
      </trkpt>
      <trkpt lat="46.20405" lon="6.78269">
        <ele>1543</ele>
        <time>2026-09-01T12:55:46.000Z</time>
      </trkpt>
      <trkpt lat="46.20438" lon="6.78262">
        <ele>1543</ele>
        <time>2026-09-01T12:56:25.000Z</time>
      </trkpt>
      <trkpt lat="46.20447" lon="6.78242">
        <ele>1542</ele>
        <time>2026-09-01T12:56:44.000Z</time>
      </trkpt>
      <trkpt lat="46.20448" lon="6.78221">
        <ele>1541</ele>
        <time>2026-09-01T12:57:00.000Z</time>
      </trkpt>
      <trkpt lat="46.20454" lon="6.78209">
        <ele>1540</ele>
        <time>2026-09-01T12:57:12.000Z</time>
      </trkpt>
      <trkpt lat="46.20464" lon="6.78198">
        <ele>1540</ele>
        <time>2026-09-01T12:57:26.000Z</time>
      </trkpt>
      <trkpt lat="46.2047" lon="6.78197">
        <ele>1539</ele>
        <time>2026-09-01T12:57:33.000Z</time>
      </trkpt>
      <trkpt lat="46.20485" lon="6.78147">
        <ele>1537</ele>
        <time>2026-09-01T12:58:17.000Z</time>
      </trkpt>
      <trkpt lat="46.20502" lon="6.78118">
        <ele>1533</ele>
        <time>2026-09-01T12:58:47.000Z</time>
      </trkpt>
      <trkpt lat="46.20543" lon="6.78067">
        <ele>1524</ele>
        <time>2026-09-01T12:59:49.000Z</time>
      </trkpt>
      <trkpt lat="46.20586" lon="6.78008">
        <ele>1512</ele>
        <time>2026-09-01T13:00:57.000Z</time>
      </trkpt>
      <trkpt lat="46.20608" lon="6.77968">
        <ele>1506</ele>
        <time>2026-09-01T13:01:37.000Z</time>
      </trkpt>
      <trkpt lat="46.20635" lon="6.77894">
        <ele>1498</ele>
        <time>2026-09-01T13:02:44.000Z</time>
      </trkpt>
      <trkpt lat="46.20638" lon="6.7787">
        <ele>1498</ele>
        <time>2026-09-01T13:03:03.000Z</time>
      </trkpt>
      <trkpt lat="46.20636" lon="6.77842">
        <ele>1497</ele>
        <time>2026-09-01T13:03:25.000Z</time>
      </trkpt>
      <trkpt lat="46.20627" lon="6.7782">
        <ele>1497</ele>
        <time>2026-09-01T13:03:46.000Z</time>
      </trkpt>
      <trkpt lat="46.20631" lon="6.77815">
        <ele>1496</ele>
        <time>2026-09-01T13:03:52.000Z</time>
      </trkpt>
      <trkpt lat="46.20696" lon="6.77755">
        <ele>1496</ele>
        <time>2026-09-01T13:05:20.000Z</time>
      </trkpt>
      <trkpt lat="46.20715" lon="6.77725">
        <ele>1496</ele>
        <time>2026-09-01T13:05:52.000Z</time>
      </trkpt>
      <trkpt lat="46.20733" lon="6.77704">
        <ele>1495</ele>
        <time>2026-09-01T13:06:19.000Z</time>
      </trkpt>
      <trkpt lat="46.20759" lon="6.77685">
        <ele>1495</ele>
        <time>2026-09-01T13:06:51.000Z</time>
      </trkpt>
      <trkpt lat="46.20799" lon="6.77625">
        <ele>1494</ele>
        <time>2026-09-01T13:07:58.000Z</time>
      </trkpt>
      <trkpt lat="46.20846" lon="6.77596">
        <ele>1494</ele>
        <time>2026-09-01T13:08:57.000Z</time>
      </trkpt>
      <trkpt lat="46.20862" lon="6.77554">
        <ele>1495</ele>
        <time>2026-09-01T13:09:45.000Z</time>
      </trkpt>
    </trkseg>
  </trk>
</gpx>